Time;durP1;ratioP1;P1;durP2;ratioP2;P2;SDS_P1;SDS_P2;PMS_P1;PMS_P2;Temp;Humidity;BMP_temperature;BMP_pressure;BME280_temperature;BME280_humidity;BME280_pressure;Samples;Min_cycle;Max_cycle;Signal;HPM_P1;HPM_P2
2023/09/21 04:01:09;;;;;;;1.60;1.27;;;14.80;97.30;;;;;;5845832;23;20482;-86
2023/09/21 04:03:43;;;;;;;1.40;1.27;;;14.80;97.30;;;;;;5020654;28;20484;-86
2023/09/21 04:06:11;;;;;;;1.33;1.23;;;14.90;97.30;;;;;;5003603;28;20425;-86
2023/09/21 04:08:39;;;;;;;1.23;1.10;;;14.80;97.30;;;;;;5007338;28;20586;-86
2023/09/21 04:11:12;;;;;;;1.60;1.60;;;14.80;97.30;;;;;;5002156;28;20452;-88
2023/09/21 04:13:41;;;;;;;1.37;1.30;;;14.80;97.30;;;;;;4992659;28;20480;-88
2023/09/21 04:18:52;;;;;;;1.10;1.00;;;14.80;97.30;;;;;;4982131;28;20415;-88
2023/09/21 04:21:19;;;;;;;1.63;1.57;;;14.80;97.30;;;;;;4987424;28;20441;-88
2023/09/21 04:23:45;;;;;;;1.00;0.90;;;14.80;97.30;;;;;;4987533;28;20240;-88
2023/09/21 04:26:12;;;;;;;1.17;1.07;;;14.80;97.30;;;;;;4987342;28;20842;-88
2023/09/21 04:28:37;;;;;;;1.10;1.00;;;14.80;97.30;;;;;;4987652;28;20444;-88
2023/09/21 04:31:03;;;;;;;1.50;1.30;;;14.80;97.30;;;;;;4993351;28;20447;-86
2023/09/21 04:33:28;;;;;;;1.30;1.20;;;14.70;97.30;;;;;;4980675;28;20182;-89
2023/09/21 04:35:54;;;;;;;1.77;1.73;;;14.70;97.30;;;;;;4982941;28;20209;-88
2023/09/21 04:38:19;;;;;;;2.30;1.97;;;14.60;97.30;;;;;;4993775;28;20663;-88
2023/09/21 04:40:48;;;;;;;1.43;1.33;;;14.60;97.30;;;;;;4992467;28;20197;-88
2023/09/21 04:43:16;;;;;;;1.80;1.70;;;14.60;97.30;;;;;;4990193;28;20174;-88
2023/09/21 04:45:41;;;;;;;1.20;1.10;;;14.50;97.30;;;;;;4992750;28;20942;-88
2023/09/21 04:48:07;;;;;;;1.07;1.00;;;14.50;97.30;;;;;;4988685;28;20533;-88
2023/09/21 04:50:32;;;;;;;1.40;1.30;;;14.50;97.30;;;;;;4988666;28;20328;-87
2023/09/21 04:52:59;;;;;;;1.17;1.10;;;14.50;97.30;;;;;;4994779;28;20644;-88
2023/09/21 04:55:25;;;;;;;1.20;1.10;;;14.50;97.30;;;;;;4991993;28;20281;-88
2023/09/21 04:57:51;;;;;;;1.50;1.40;;;14.50;97.30;;;;;;4987946;28;20409;-88
2023/09/21 05:00:16;;;;;;;1.33;1.20;;;14.50;97.30;;;;;;4987389;28;20943;-87
2023/09/21 05:02:43;;;;;;;1.50;1.30;;;14.50;97.30;;;;;;5021043;23;20587;-65
2023/09/21 05:05:08;;;;;;;1.73;1.20;;;14.50;97.30;;;;;;5002223;28;20197;-66
2023/09/21 05:07:37;;;;;;;2.37;1.60;;;14.50;97.30;;;;;;4997358;28;20797;-67
2023/09/21 05:10:06;;;;;;;1.70;1.60;;;14.40;97.30;;;;;;4989494;28;20201;-67
2023/09/21 05:12:32;;;;;;;1.73;1.60;;;14.40;97.30;;;;;;4985176;28;20724;-67
2023/09/21 05:14:58;;;;;;;1.40;1.30;;;14.40;97.30;;;;;;4981687;28;20456;-67
2023/09/21 05:17:23;;;;;;;1.73;1.27;;;14.40;97.30;;;;;;4985086;28;20647;-67
2023/09/21 05:19:50;;;;;;;1.50;1.40;;;14.30;97.30;;;;;;4970701;28;20174;-67
2023/09/21 05:22:16;;;;;;;2.73;1.60;;;14.30;97.30;;;;;;4980504;28;20198;-67
2023/09/21 05:24:43;;;;;;;1.83;1.73;;;14.30;97.30;;;;;;4978702;28;20439;-67
2023/09/21 05:27:09;;;;;;;1.03;0.93;;;14.30;97.30;;;;;;4980084;28;20186;-67
2023/09/21 05:29:36;;;;;;;1.43;1.33;;;14.30;97.30;;;;;;4995972;28;20417;-67
2023/09/21 05:32:02;;;;;;;2.17;1.50;;;14.30;97.30;;;;;;4979234;28;20210;-67
2023/09/21 05:34:28;;;;;;;2.30;1.30;;;14.40;97.30;;;;;;4981794;28;20530;-67
2023/09/21 05:36:54;;;;;;;2.60;1.57;;;14.40;97.30;;;;;;4971547;28;20174;-67
2023/09/21 05:39:20;;;;;;;1.17;1.07;;;14.40;97.30;;;;;;4982215;28;20470;-67
2023/09/21 05:41:49;;;;;;;1.67;1.67;;;14.40;97.30;;;;;;4983233;28;20442;-68
2023/09/21 05:44:21;;;;;;;1.30;1.20;;;14.50;97.30;;;;;;4973434;28;20178;-67
2023/09/21 05:46:46;;;;;;;2.23;2.03;;;14.50;97.30;;;;;;4994689;28;20418;-67
2023/09/21 05:49:19;;;;;;;1.27;1.23;;;14.50;97.30;;;;;;4973037;28;20437;-68
2023/09/21 05:51:47;;;;;;;1.30;1.10;;;14.60;97.30;;;;;;4982135;28;20206;-67
2023/09/21 05:54:14;;;;;;;1.40;1.30;;;14.60;97.30;;;;;;4978079;28;20465;-68
2023/09/21 05:56:40;;;;;;;1.30;1.23;;;14.60;97.30;;;;;;4979857;28;20532;-67
2023/09/21 05:59:06;;;;;;;2.67;2.20;;;14.60;97.30;;;;;;4980043;28;20963;-68
2023/09/21 06:01:32;;;;;;;1.93;1.33;;;14.70;97.30;;;;;;4981401;28;20190;-68
2023/09/21 06:04:02;;;;;;;2.40;2.00;;;14.70;97.30;;;;;;4979143;28;20485;-67
2023/09/21 06:06:31;;;;;;;2.37;1.50;;;14.80;97.30;;;;;;4983717;28;20174;-68
2023/09/21 06:08:57;;;;;;;10.53;1.30;;;14.80;97.30;;;;;;4971278;28;20434;-68
2023/09/21 06:11:25;;;;;;;2.50;2.10;;;14.80;97.30;;;;;;4986583;28;20429;-67
2023/09/21 06:13:52;;;;;;;1.43;1.33;;;14.90;97.30;;;;;;4990387;28;20657;-68
2023/09/21 06:16:18;;;;;;;1.83;1.73;;;15.00;97.30;;;;;;4980297;28;20422;-68
2023/09/21 06:18:43;;;;;;;1.40;1.30;;;15.00;97.30;;;;;;4983570;28;20467;-67
2023/09/21 06:21:09;;;;;;;1.10;1.00;;;15.10;97.30;;;;;;4979726;28;20209;-67
2023/09/21 06:23:35;;;;;;;1.23;1.20;;;15.20;97.30;;;;;;4980434;28;20177;-67
2023/09/21 06:26:00;;;;;;;1.10;1.00;;;15.20;97.30;;;;;;4970747;28;20552;-68
2023/09/21 06:28:26;;;;;;;4.20;2.50;;;15.30;97.30;;;;;;4982368;28;20222;-67
2023/09/21 06:30:52;;;;;;;1.50;1.40;;;15.40;97.30;;;;;;4977958;28;20213;-67
2023/09/21 06:33:18;;;;;;;3.53;2.40;;;15.50;97.30;;;;;;4978102;28;20269;-67
2023/09/21 06:35:44;;;;;;;3.00;1.60;;;15.60;97.30;;;;;;4982776;28;20287;-67
2023/09/21 06:38:09;;;;;;;2.63;1.03;;;15.60;97.30;;;;;;4978318;28;20950;-65
2023/09/21 06:40:38;;;;;;;1.60;1.20;;;15.70;97.30;;;;;;4995551;28;20244;-65
2023/09/21 06:43:05;;;;;;;1.50;1.40;;;15.80;97.30;;;;;;4983788;28;20721;-65
2023/09/21 06:45:32;;;;;;;1.00;0.93;;;15.90;97.30;;;;;;4982818;28;20425;-65
2023/09/21 06:48:00;;;;;;;1.53;1.43;;;16.00;97.30;;;;;;4983926;28;20433;-66
2023/09/21 06:50:27;;;;;;;1.13;1.03;;;16.10;97.30;;;;;;4985715;28;21087;-66
2023/09/21 06:52:53;;;;;;;1.23;1.20;;;16.20;97.30;;;;;;4981767;28;20441;-66
2023/09/21 06:55:18;;;;;;;1.90;1.70;;;16.30;97.30;;;;;;4987382;28;21027;-66
2023/09/21 06:57:44;;;;;;;1.50;1.17;;;16.40;97.30;;;;;;4980439;28;20186;-66
2023/09/21 07:00:10;;;;;;;2.20;1.63;;;16.50;97.30;;;;;;4975410;28;20178;-66
2023/09/21 07:02:36;;;;;;;2.13;1.43;;;16.60;97.30;;;;;;4988243;28;20217;-66
2023/09/21 07:05:02;;;;;;;1.63;1.10;;;16.70;97.30;;;;;;4970988;28;20421;-66
2023/09/21 07:07:28;;;;;;;2.23;2.00;;;16.80;97.30;;;;;;4982523;28;20353;-66
2023/09/21 07:09:54;;;;;;;1.10;1.00;;;16.90;97.30;;;;;;4979700;28;20459;-66
2023/09/21 07:12:22;;;;;;;3.20;1.53;;;17.00;97.30;;;;;;4972254;28;20489;-66
2023/09/21 07:14:49;;;;;;;1.87;1.77;;;17.10;97.30;;;;;;4980673;28;20460;-66
2023/09/21 07:17:16;;;;;;;1.83;1.60;;;17.10;97.30;;;;;;4986279;28;20802;-66
2023/09/21 07:19:41;;;;;;;2.50;1.03;;;17.20;97.30;;;;;;4985120;28;20913;-66
2023/09/21 07:22:07;;;;;;;1.43;1.33;;;17.30;97.30;;;;;;4983851;28;20499;-67
2023/09/21 07:24:32;;;;;;;1.30;1.27;;;17.40;97.30;;;;;;4986645;28;20231;-66
2023/09/21 07:26:58;;;;;;;2.90;1.30;;;17.40;97.30;;;;;;4982433;28;20729;-66
2023/09/21 07:29:24;;;;;;;2.30;2.00;;;17.50;97.30;;;;;;4981207;28;20182;-66
2023/09/21 07:31:50;;;;;;;0.70;0.70;;;17.50;97.30;;;;;;4984233;28;20206;-66
2023/09/21 07:34:16;;;;;;;2.20;1.57;;;17.60;97.30;;;;;;4982909;28;20280;-66
2023/09/21 07:36:46;;;;;;;1.30;1.20;;;17.60;97.30;;;;;;4984550;28;20471;-65
2023/09/21 07:39:12;;;;;;;1.17;1.07;;;17.60;97.30;;;;;;4979509;28;20425;-66
2023/09/21 07:41:40;;;;;;;1.03;1.00;;;17.70;97.30;;;;;;4980550;28;20445;-66
2023/09/21 07:44:08;;;;;;;1.60;1.50;;;17.70;97.30;;;;;;4981177;28;20417;-66
2023/09/21 07:46:37;;;;;;;2.20;1.60;;;17.70;97.30;;;;;;4982815;28;20499;-66
2023/09/21 07:49:07;;;;;;;1.43;1.33;;;17.80;97.30;;;;;;4975777;28;20777;-66
2023/09/21 07:51:33;;;;;;;1.40;1.27;;;17.90;97.30;;;;;;4988161;28;20531;-66
2023/09/21 07:54:02;;;;;;;1.43;1.33;;;18.00;97.30;;;;;;4979424;28;20618;-67
2023/09/21 07:56:29;;;;;;;1.33;1.23;;;18.10;97.30;;;;;;4985509;28;20413;-66
2023/09/21 07:58:55;;;;;;;1.60;1.57;;;18.20;97.30;;;;;;4987158;28;20426;-66
2023/09/21 08:01:21;;;;;;;1.33;1.23;;;18.30;97.30;;;;;;4985764;28;20447;-67
2023/09/21 08:03:50;;;;;;;2.27;1.50;;;18.40;97.30;;;;;;4982882;28;20598;-66
2023/09/21 08:06:17;;;;;;;3.10;1.73;;;18.50;97.30;;;;;;4975784;28;20202;-67
2023/09/21 08:08:42;;;;;;;1.30;1.10;;;18.60;97.30;;;;;;4998986;28;20543;-66
2023/09/21 08:11:08;;;;;;;1.37;1.27;;;18.70;97.30;;;;;;4982995;28;20520;-66
2023/09/21 08:13:34;;;;;;;1.00;0.90;;;18.80;97.30;;;;;;4983984;28;20186;-66
2023/09/21 08:15:59;;;;;;;1.30;1.20;;;19.00;97.30;;;;;;4994766;28;20269;-66
2023/09/21 08:18:25;;;;;;;1.00;0.97;;;19.10;97.30;;;;;;4982428;28;20261;-66
2023/09/21 08:20:50;;;;;;;5.70;2.37;;;19.40;97.30;;;;;;4971375;28;20261;-67
2023/09/21 08:23:17;;;;;;;1.27;1.17;;;19.50;97.30;;;;;;4974151;28;20183;-66
2023/09/21 08:25:42;;;;;;;0.90;0.80;;;19.60;97.30;;;;;;4975763;28;20184;-67
2023/09/21 08:28:08;;;;;;;2.63;1.27;;;19.80;97.30;;;;;;4985011;28;20513;-67
2023/09/21 08:30:34;;;;;;;1.00;0.90;;;20.00;97.30;;;;;;4983040;28;20194;-67
2023/09/21 08:33:00;;;;;;;1.17;1.10;;;20.10;97.30;;;;;;4983511;28;20507;-69
2023/09/21 08:35:26;;;;;;;1.00;0.90;;;20.30;97.30;;;;;;4981702;28;20208;-69
2023/09/21 08:37:52;;;;;;;1.20;1.00;;;20.50;97.30;;;;;;4980192;28;20277;-68
2023/09/21 08:40:22;;;;;;;0.90;0.90;;;20.60;97.30;;;;;;4983500;28;20418;-69
2023/09/21 08:42:52;;;;;;;1.47;0.90;;;20.80;97.30;;;;;;4989521;28;20413;-69
2023/09/21 08:45:19;;;;;;;1.50;1.10;;;21.00;97.30;;;;;;4986476;28;20527;-69
2023/09/21 08:47:46;;;;;;;1.10;1.00;;;21.10;97.30;;;;;;4982808;28;20476;-69
2023/09/21 08:50:13;;;;;;;1.77;0.97;;;21.30;97.30;;;;;;4984767;28;20421;-69
2023/09/21 08:52:41;;;;;;;3.70;1.53;;;21.40;97.30;;;;;;5003967;28;20520;-69
2023/09/21 08:55:10;;;;;;;2.73;1.07;;;21.50;97.30;;;;;;4980204;28;20890;-70
2023/09/21 08:57:36;;;;;;;1.63;1.53;;;21.70;97.30;;;;;;4990052;28;20424;-70
2023/09/21 09:00:06;;;;;;;1.00;0.90;;;21.90;97.30;;;;;;4982701;28;20521;-69
2023/09/21 09:02:35;;;;;;;1.63;1.53;;;22.00;97.30;;;;;;4983490;28;20468;-68
2023/09/21 09:05:08;;;;;;;1.10;1.00;;;22.20;97.30;;;;;;4971178;28;20471;-69
2023/09/21 09:07:41;;;;;;;1.90;1.27;;;22.30;97.30;;;;;;4983683;28;20869;-69
2023/09/21 09:10:15;;;;;;;2.93;1.07;;;22.50;97.30;;;;;;4984157;28;20504;-69
2023/09/21 09:12:41;;;;;;;1.43;1.20;;;22.60;97.30;;;;;;4981440;28;20428;-69
2023/09/21 09:15:09;;;;;;;1.20;1.10;;;22.70;97.30;;;;;;4988205;28;20463;-66
2023/09/21 09:17:35;;;;;;;0.93;0.83;;;22.80;97.30;;;;;;4988131;28;20174;-66
2023/09/21 09:20:06;;;;;;;2.80;2.60;;;22.90;97.30;;;;;;4987274;28;20946;-67
2023/09/21 09:22:34;;;;;;;2.23;1.33;;;23.10;97.30;;;;;;4999005;28;20453;-67
2023/09/21 09:25:07;;;;;;;1.33;1.20;;;23.20;97.30;;;;;;4986478;28;20452;-67
2023/09/21 09:27:34;;;;;;;1.10;1.00;;;23.30;96.60;;;;;;4981264;28;21005;-67
2023/09/21 09:30:00;;;;;;;1.07;0.97;;;23.50;95.50;;;;;;4984884;28;20470;-67
2023/09/21 09:32:35;;;;;;;3.33;2.17;;;23.60;95.60;;;;;;4974316;28;20579;-67
2023/09/21 09:35:02;;;;;;;1.10;1.00;;;23.70;95.60;;;;;;4985748;28;20229;-67
2023/09/21 09:37:28;;;;;;;1.13;1.07;;;23.80;95.20;;;;;;4979596;28;20479;-67
2023/09/21 09:39:55;;;;;;;1.23;1.13;;;23.90;94.60;;;;;;4983613;28;20508;-67
2023/09/21 09:42:22;;;;;;;4.10;1.30;;;24.00;94.40;;;;;;4986254;28;20201;-67
2023/09/21 09:44:51;;;;;;;1.10;1.00;;;24.10;94.20;;;;;;4986107;28;20797;-67
2023/09/21 09:47:24;;;;;;;1.10;1.00;;;24.20;93.90;;;;;;4973463;28;20476;-67
2023/09/21 09:49:53;;;;;;;0.80;0.80;;;24.20;93.60;;;;;;4989522;28;20425;-67
2023/09/21 09:52:20;;;;;;;0.93;0.83;;;24.30;93.10;;;;;;4983301;28;20459;-67
2023/09/21 09:54:48;;;;;;;1.40;1.30;;;24.40;92.60;;;;;;4984754;28;20464;-67
2023/09/21 09:57:15;;;;;;;0.90;0.90;;;24.50;92.00;;;;;;4985373;28;20501;-67
2023/09/21 09:59:42;;;;;;;3.33;1.17;;;24.60;91.80;;;;;;4984689;28;20940;-66
2023/09/21 10:02:13;;;;;;;1.00;0.90;;;24.60;91.60;;;;;;4979642;28;20988;-67
2023/09/21 10:04:40;;;;;;;4.00;1.30;;;24.70;91.00;;;;;;4986732;28;20425;-66
2023/09/21 10:07:10;;;;;;;1.10;1.00;;;24.80;91.20;;;;;;4990822;28;20417;-66
2023/09/21 10:09:37;;;;;;;0.90;0.80;;;24.90;89.90;;;;;;4985880;28;20436;-67
2023/09/21 10:12:03;;;;;;;1.00;0.90;;;25.00;89.80;;;;;;4988173;28;20452;-67
2023/09/21 10:14:33;;;;;;;3.50;1.23;;;25.20;88.90;;;;;;4978510;28;20461;-67
2023/09/21 10:17:04;;;;;;;1.20;1.10;;;25.30;88.50;;;;;;4974205;28;20414;-66
2023/09/21 10:19:36;;;;;;;1.07;1.00;;;25.50;88.60;;;;;;4976397;28;20413;-67
2023/09/21 10:22:25;;;;;;;1.63;1.20;;;25.60;86.80;;;;;;4975384;28;20444;-67
2023/09/21 10:24:53;;;;;;;1.57;1.20;;;25.70;86.10;;;;;;4986718;28;20913;-69
2023/09/21 10:27:24;;;;;;;1.37;0.90;;;25.80;87.00;;;;;;4985687;28;20436;-67
2023/09/21 10:29:57;;;;;;;1.20;1.10;;;26.00;86.00;;;;;;4982212;28;20810;-68
2023/09/21 10:32:41;;;;;;;1.23;1.10;;;26.10;85.20;;;;;;4984058;28;20536;-67
2023/09/21 10:35:08;;;;;;;1.00;0.90;;;26.30;84.70;;;;;;4985967;28;20980;-68
2023/09/21 10:37:34;;;;;;;0.90;0.80;;;26.40;83.30;;;;;;4986530;28;20426;-68
2023/09/21 10:40:00;;;;;;;2.10;1.00;;;26.50;84.50;;;;;;4980119;28;20439;-68
2023/09/21 10:42:33;;;;;;;1.47;0.90;;;26.50;84.40;;;;;;4981089;28;20281;-68
2023/09/21 10:45:00;;;;;;;1.00;0.90;;;26.50;84.60;;;;;;4983843;28;20212;-68
2023/09/21 10:47:32;;;;;;;5.30;1.00;;;26.60;84.50;;;;;;4975046;28;20429;-68
2023/09/21 10:50:10;;;;;;;1.10;1.00;;;26.70;82.00;;;;;;4973428;28;20808;-67
2023/09/21 10:52:41;;;;;;;0.93;0.83;;;26.80;83.70;;;;;;4968381;28;20437;-68
2023/09/21 10:55:09;;;;;;;5.30;2.50;;;26.80;81.50;;;;;;4970718;28;20472;-67
2023/09/21 10:57:35;;;;;;;2.50;1.50;;;26.90;82.40;;;;;;4985386;28;20421;-68
2023/09/21 11:00:01;;;;;;;1.33;1.23;;;26.90;83.00;;;;;;4985241;28;20409;-68
2023/09/21 11:02:34;;;;;;;1.00;0.90;;;27.00;83.40;;;;;;4980651;28;20468;-67
2023/09/21 11:05:00;;;;;;;0.83;0.77;;;27.10;83.80;;;;;;5001478;28;20298;-67
2023/09/21 11:07:26;;;;;;;0.80;0.70;;;27.20;83.00;;;;;;4985942;28;20516;-67
2023/09/21 11:09:52;;;;;;;1.23;1.03;;;27.30;83.80;;;;;;4987777;28;20575;-68
2023/09/21 11:12:17;;;;;;;1.13;1.03;;;27.40;81.60;;;;;;4984765;28;20202;-67
2023/09/21 11:14:48;;;;;;;0.90;0.80;;;27.50;81.70;;;;;;4988542;28;20669;-68
2023/09/21 11:17:18;;;;;;;1.23;0.97;;;27.60;81.80;;;;;;5000627;28;20687;-68
2023/09/21 11:19:45;;;;;;;1.03;0.93;;;27.70;81.00;;;;;;4987094;28;20855;-67
2023/09/21 11:22:12;;;;;;;0.93;0.90;;;27.70;80.50;;;;;;4984634;28;20434;-69
2023/09/21 11:24:38;;;;;;;0.90;0.80;;;27.80;79.20;;;;;;4986836;28;20429;-68
2023/09/21 11:27:09;;;;;;;1.50;0.90;;;27.80;78.30;;;;;;5000495;28;21041;-68
2023/09/21 11:29:36;;;;;;;1.57;1.47;;;28.00;79.40;;;;;;5003344;28;20940;-68
2023/09/21 11:32:02;;;;;;;1.10;1.00;;;28.10;79.20;;;;;;4988684;28;20452;-68
2023/09/21 11:34:29;;;;;;;0.90;0.80;;;28.20;78.80;;;;;;4986112;28;20464;-69
2023/09/21 11:36:55;;;;;;;0.80;0.70;;;28.30;79.10;;;;;;4999576;28;20174;-68
2023/09/21 11:39:27;;;;;;;1.03;0.80;;;28.40;75.50;;;;;;4982719;28;20436;-68
2023/09/21 11:41:54;;;;;;;0.60;0.60;;;28.60;77.60;;;;;;4998225;28;20956;-68
2023/09/21 11:44:20;;;;;;;1.03;0.70;;;28.70;78.20;;;;;;4968473;28;20476;-69
2023/09/21 11:46:45;;;;;;;1.00;0.90;;;28.70;78.70;;;;;;4982776;28;20425;-69
2023/09/21 11:49:14;;;;;;;0.90;0.80;;;28.70;77.70;;;;;;4982831;28;20844;-69
2023/09/21 11:51:43;;;;;;;1.53;1.43;;;28.50;76.60;;;;;;4985710;28;20208;-68
2023/09/21 11:54:11;;;;;;;1.73;1.37;;;28.40;77.20;;;;;;4983174;28;20425;-68
2023/09/21 11:56:37;;;;;;;1.27;1.10;;;28.30;77.00;;;;;;4984846;28;20789;-68
2023/09/21 11:59:06;;;;;;;0.90;0.80;;;28.20;79.50;;;;;;4983541;28;20916;-68
2023/09/21 12:01:34;;;;;;;1.50;1.40;;;28.20;79.40;;;;;;4986051;28;20197;-68
2023/09/21 12:04:03;;;;;;;1.00;0.90;;;28.10;79.00;;;;;;4985446;28;20512;-68
2023/09/21 12:06:30;;;;;;;1.80;1.37;;;28.20;78.70;;;;;;4978448;28;20417;-68
2023/09/21 12:08:57;;;;;;;2.40;0.90;;;28.20;78.80;;;;;;4984313;28;20421;-68
2023/09/21 12:11:23;;;;;;;2.30;1.00;;;28.20;78.00;;;;;;4985262;28;20496;-68
2023/09/21 12:13:48;;;;;;;1.03;0.80;;;28.30;78.40;;;;;;4984545;28;20441;-68
2023/09/21 12:16:14;;;;;;;1.63;1.13;;;28.50;78.10;;;;;;4985050;28;20206;-68
2023/09/21 12:18:41;;;;;;;1.00;1.00;;;28.60;76.80;;;;;;4989703;28;20189;-68
2023/09/21 12:21:07;;;;;;;1.67;0.97;;;28.60;76.80;;;;;;4988634;28;20201;-68
2023/09/21 12:23:34;;;;;;;0.77;0.73;;;28.70;77.30;;;;;;4990867;28;20475;-68
2023/09/21 12:26:00;;;;;;;0.77;0.70;;;28.80;77.60;;;;;;5006466;28;20429;-69
2023/09/21 12:28:27;;;;;;;1.00;0.80;;;28.90;77.60;;;;;;4991704;28;20444;-68
2023/09/21 12:30:54;;;;;;;0.80;0.70;;;29.00;78.20;;;;;;4992241;28;20205;-68
2023/09/21 12:33:21;;;;;;;1.20;1.10;;;29.10;77.80;;;;;;5004449;28;20421;-69
2023/09/21 12:35:46;;;;;;;0.90;0.80;;;29.20;76.60;;;;;;4986978;28;20473;-68
2023/09/21 12:38:13;;;;;;;1.20;0.80;;;29.20;76.80;;;;;;4984387;28;20937;-68
2023/09/21 12:40:39;;;;;;;0.90;0.80;;;29.20;76.20;;;;;;4991675;28;20915;-68
2023/09/21 12:43:09;;;;;;;0.90;0.80;;;29.10;75.70;;;;;;4990415;28;20563;-68
2023/09/21 12:45:34;;;;;;;3.63;1.73;;;29.00;77.00;;;;;;4990467;28;20182;-68
2023/09/21 12:48:01;;;;;;;1.50;1.40;;;28.90;77.50;;;;;;4989853;28;20482;-68
2023/09/21 12:50:28;;;;;;;0.97;0.93;;;28.90;78.10;;;;;;4983340;28;20205;-68
2023/09/21 12:52:54;;;;;;;1.20;0.80;;;28.80;78.90;;;;;;4991297;28;20448;-68
2023/09/21 12:55:21;;;;;;;1.10;0.90;;;28.70;78.00;;;;;;4985971;28;20501;-69
2023/09/21 12:57:47;;;;;;;0.73;0.70;;;28.50;77.40;;;;;;4985405;28;20428;-68
2023/09/21 13:00:23;;;;;;;1.30;1.00;;;28.40;77.80;;;;;;4989340;28;20413;-68
2023/09/21 13:02:49;;;;;;;2.20;1.37;;;28.30;78.20;;;;;;4986154;28;20990;-68
2023/09/21 13:05:16;;;;;;;1.00;0.97;;;28.20;78.80;;;;;;4990111;28;20421;-68
2023/09/21 13:07:43;;;;;;;1.10;0.80;;;28.10;78.50;;;;;;4991508;28;20485;-68
2023/09/21 13:10:09;;;;;;;2.50;1.37;;;28.00;79.50;;;;;;4990454;28;20453;-68
2023/09/21 13:12:35;;;;;;;0.70;0.70;;;28.00;79.10;;;;;;4991426;28;20963;-67
2023/09/21 13:15:01;;;;;;;0.90;0.83;;;28.00;81.50;;;;;;4990940;28;20518;-68
2023/09/21 13:17:27;;;;;;;1.20;0.90;;;28.00;80.40;;;;;;4990066;28;20417;-68
2023/09/21 13:19:54;;;;;;;1.00;0.70;;;28.00;80.00;;;;;;4984754;28;20671;-68
2023/09/21 13:22:20;;;;;;;0.80;0.77;;;28.20;79.70;;;;;;4984582;28;20706;-68
2023/09/21 13:24:46;;;;;;;2.20;2.03;;;28.30;80.70;;;;;;4981846;28;20428;-68
2023/09/21 13:27:13;;;;;;;1.03;0.93;;;28.40;79.40;;;;;;4986524;28;20657;-68
2023/09/21 13:29:39;;;;;;;1.10;1.00;;;28.50;79.10;;;;;;4991619;28;20917;-68
2023/09/21 13:32:04;;;;;;;0.90;0.80;;;28.60;79.10;;;;;;4990244;28;20514;-68
2023/09/21 13:34:30;;;;;;;0.80;0.70;;;28.70;78.60;;;;;;4991568;28;20868;-68
2023/09/21 13:36:56;;;;;;;1.13;0.83;;;28.80;78.60;;;;;;4991526;28;20197;-68
2023/09/21 13:39:22;;;;;;;0.70;0.70;;;28.90;77.70;;;;;;4991467;28;20673;-68
2023/09/21 13:41:56;;;;;;;0.80;0.70;;;28.80;78.40;;;;;;5019031;23;20577;-88
2023/09/21 13:44:22;;;;;;;4.77;1.40;;;28.80;78.10;;;;;;5006572;28;20440;-88
2023/09/21 13:46:50;;;;;;;1.20;1.00;;;28.90;78.90;;;;;;5002898;28;20429;-88
2023/09/21 13:49:42;;;;;;;1.10;0.80;;;29.10;78.50;;;;;;5003789;28;20177;-89
2023/09/21 13:52:51;;;;;;;1.00;0.90;;;29.20;78.60;;;;;;5000107;28;20629;-87
2023/09/21 13:55:25;;;;;;;2.80;0.90;;;29.30;78.10;;;;;;4989552;28;20510;-89
2023/09/21 13:57:53;;;;;;;1.87;0.90;;;29.50;77.40;;;;;;5002769;28;20423;-88
2023/09/21 14:00:21;;;;;;;0.70;0.70;;;29.60;77.00;;;;;;5008644;28;20448;-89
2023/09/21 14:02:48;;;;;;;0.80;0.80;;;29.80;76.80;;;;;;5002245;28;20448;-88
2023/09/21 14:05:15;;;;;;;0.80;0.70;;;30.10;75.30;;;;;;5011049;28;20424;-88
2023/09/21 14:07:41;;;;;;;3.13;1.23;;;30.20;73.50;;;;;;5011829;28;20426;-87
2023/09/21 14:10:07;;;;;;;1.17;1.07;;;30.30;73.40;;;;;;5004209;28;20958;-88
2023/09/21 14:12:33;;;;;;;1.33;1.03;;;30.40;73.60;;;;;;5003059;28;20184;-88
2023/09/21 14:14:59;;;;;;;1.23;1.13;;;30.40;73.10;;;;;;5003251;28;20558;-88
2023/09/21 14:17:25;;;;;;;1.87;1.77;;;30.30;73.80;;;;;;5011237;28;20711;-88
2023/09/21 14:19:52;;;;;;;1.00;0.90;;;30.30;74.10;;;;;;5010934;28;20415;-88
2023/09/21 14:22:21;;;;;;;0.83;0.77;;;30.30;74.40;;;;;;5001078;28;20204;-88
2023/09/21 14:24:53;;;;;;;1.50;1.37;;;30.20;74.10;;;;;;4995888;28;20439;-88
2023/09/21 14:27:19;;;;;;;1.40;1.00;;;30.00;74.60;;;;;;5011665;28;20438;-88
2023/09/21 14:29:44;;;;;;;0.80;0.70;;;29.80;75.40;;;;;;4997412;28;20486;-88
2023/09/21 14:32:13;;;;;;;0.80;0.70;;;29.60;75.00;;;;;;5002098;28;20210;-88
2023/09/21 14:34:41;;;;;;;4.43;1.43;;;29.50;76.20;;;;;;5003231;28;20275;-88
2023/09/21 14:37:09;;;;;;;3.40;1.40;;;29.40;77.90;;;;;;5000412;28;20417;-88
2023/09/21 14:39:35;;;;;;;0.90;0.90;;;29.30;77.60;;;;;;5003617;28;20663;-88
2023/09/21 14:42:01;;;;;;;4.73;0.97;;;29.30;78.60;;;;;;5009173;28;21093;-89
2023/09/21 14:44:28;;;;;;;1.13;0.97;;;29.20;79.50;;;;;;5011786;28;20251;-88
2023/09/21 14:46:54;;;;;;;1.60;1.50;;;29.10;80.60;;;;;;4996147;28;20216;-88
2023/09/21 14:49:22;;;;;;;1.00;0.90;;;28.90;81.70;;;;;;4994290;28;20453;-88
2023/09/21 14:51:47;;;;;;;1.87;1.70;;;28.70;81.70;;;;;;5003794;28;20343;-89
2023/09/21 14:54:13;;;;;;;1.27;1.20;;;28.70;81.90;;;;;;5002035;28;20516;-87
2023/09/21 14:56:45;;;;;;;31.63;1.43;;;28.70;82.10;;;;;;5011194;28;20290;-87
2023/09/21 14:59:11;;;;;;;1.47;1.40;;;28.60;82.90;;;;;;5010243;28;20183;-88
2023/09/21 15:01:37;;;;;;;1.90;1.53;;;28.60;83.90;;;;;;5008196;28;20437;-89
2023/09/21 15:04:03;;;;;;;2.93;2.47;;;28.50;84.70;;;;;;5005727;28;20186;-89
2023/09/21 15:06:29;;;;;;;1.70;1.60;;;28.40;85.20;;;;;;5012676;28;20216;-90
2023/09/21 15:08:55;;;;;;;1.63;1.60;;;28.30;86.00;;;;;;5016894;28;20185;-88
2023/09/21 15:11:22;;;;;;;1.60;1.50;;;28.20;85.90;;;;;;5013507;28;20441;-91
2023/09/21 15:13:50;;;;;;;0.97;0.90;;;28.30;84.90;;;;;;5005778;28;20176;-87
2023/09/21 15:16:18;;;;;;;1.40;1.30;;;28.30;85.20;;;;;;5010300;28;20865;-87
2023/09/21 15:18:44;;;;;;;1.43;1.33;;;28.20;85.40;;;;;;4997257;28;20420;-86
2023/09/21 15:21:10;;;;;;;1.73;1.40;;;28.20;84.40;;;;;;5003520;28;20448;-87
2023/09/21 15:23:36;;;;;;;1.70;1.70;;;28.10;84.30;;;;;;5000673;28;20424;-87
2023/09/21 15:26:01;;;;;;;1.73;1.67;;;27.90;83.40;;;;;;5000319;28;20188;-87
2023/09/21 15:28:27;;;;;;;2.17;1.80;;;27.80;84.20;;;;;;4995582;28;20192;-87
2023/09/21 15:30:53;;;;;;;1.60;1.50;;;27.80;84.80;;;;;;5009422;28;20204;-87
2023/09/21 15:33:25;;;;;;;1.23;1.20;;;28.00;84.80;;;;;;5002860;28;20794;-87
2023/09/21 15:35:51;;;;;;;1.97;1.53;;;28.20;84.20;;;;;;5003748;28;20212;-87
2023/09/21 15:38:19;;;;;;;6.33;1.50;;;28.40;84.30;;;;;;5003884;28;20421;-86
2023/09/21 15:40:45;;;;;;;1.93;1.30;;;28.60;83.00;;;;;;5002746;28;20228;-87
2023/09/21 15:43:11;;;;;;;1.87;1.60;;;28.80;82.40;;;;;;5009264;28;20965;-87
2023/09/21 15:45:38;;;;;;;1.63;1.30;;;28.90;82.20;;;;;;4991823;28;20436;-87
2023/09/21 15:48:04;;;;;;;5.63;2.63;;;29.00;82.70;;;;;;4994112;28;20193;-87
2023/09/21 15:50:31;;;;;;;3.23;2.17;;;29.10;82.30;;;;;;5010512;28;20459;-87
2023/09/21 15:52:57;;;;;;;4.00;2.10;;;29.10;82.30;;;;;;5005097;28;20467;-88
2023/09/21 15:55:22;;;;;;;2.23;1.90;;;29.00;82.20;;;;;;5010285;28;20495;-88
2023/09/21 15:57:48;;;;;;;1.67;1.57;;;28.90;82.10;;;;;;5009748;28;20192;-87
2023/09/21 16:00:14;;;;;;;4.83;2.63;;;28.80;82.60;;;;;;4996607;28;20198;-87
2023/09/21 16:02:43;;;;;;;4.83;1.70;;;28.50;82.90;;;;;;5005606;28;20265;-86
2023/09/21 16:05:08;;;;;;;1.63;1.43;;;28.30;83.20;;;;;;5000032;28;20188;-87
2023/09/21 16:07:34;;;;;;;3.67;2.17;;;28.00;84.10;;;;;;5006634;28;20491;-87
2023/09/21 16:10:00;;;;;;;2.50;2.30;;;27.80;84.70;;;;;;4999822;28;20567;-88
2023/09/21 16:12:25;;;;;;;1.23;1.13;;;27.50;84.80;;;;;;5002496;28;20614;-88
2023/09/21 16:14:51;;;;;;;3.27;1.53;;;27.30;85.40;;;;;;5002740;28;20205;-88
2023/09/21 16:17:16;;;;;;;1.87;1.77;;;27.10;85.60;;;;;;4994696;28;20529;-87
2023/09/21 16:19:42;;;;;;;5.97;3.20;;;26.90;85.80;;;;;;5009231;28;20216;-87
2023/09/21 16:22:11;;;;;;;2.23;2.07;;;26.80;85.90;;;;;;5001726;28;20289;-86
2023/09/21 16:24:36;;;;;;;1.80;1.63;;;26.60;86.50;;;;;;4998577;28;20436;-88
2023/09/21 16:27:02;;;;;;;2.03;1.90;;;26.40;86.60;;;;;;5000811;28;20479;-89
2023/09/21 16:29:28;;;;;;;1.73;1.37;;;26.30;87.10;;;;;;5005598;28;20612;-87
2023/09/21 16:31:53;;;;;;;2.13;1.97;;;26.20;87.50;;;;;;5004802;28;20224;-87
2023/09/21 16:34:22;;;;;;;1.57;1.50;;;26.10;87.80;;;;;;5005533;28;20216;-86
2023/09/21 16:36:47;;;;;;;2.60;1.80;;;26.00;88.00;;;;;;5007752;28;20264;-88
2023/09/21 16:39:13;;;;;;;2.13;1.97;;;25.90;88.10;;;;;;5005428;28;20989;-86
2023/09/21 16:41:39;;;;;;;2.40;1.80;;;25.80;88.30;;;;;;5008763;28;20237;-87
2023/09/21 16:44:04;;;;;;;4.13;2.70;;;25.70;88.60;;;;;;5007587;28;20200;-87
2023/09/21 16:46:30;;;;;;;5.23;1.80;;;25.60;88.80;;;;;;5004354;28;20616;-87
2023/09/21 16:48:58;;;;;;;1.73;1.70;;;25.50;89.10;;;;;;5009316;28;20196;-87
2023/09/21 16:51:24;;;;;;;3.47;1.90;;;25.40;89.40;;;;;;5010189;28;20255;-88